Goodwill — DSOW6 — position and weather

sailwx.info

Track history (hours):
 
Tides and Currents Weather Stations Pressure Air Temp Water Temp Dewpoint Dewpoint Depression Visibility Wind Speed Wind Dir Waves Ship Positions

Goodwill

Last reported at 2015-Aug-20 07:07 UTC. Time now 2015-Sep-05 05:51 UTC.
Position S 27°01' E 153°57'.
Warning: this ship's position is 15 days out of date.

Length 269 m; draft 15.2 m.

Type: Cargo ship. MMSI: 440541000.

Date/timePositionNaut miles runAvg speedWind from/ knotsBaromVisibWave heightAir tempDewpointWater temp
2015-Aug-20 07:07S 27°01' E 153°57'5 9.3
2015-Aug-20 06:33S 27°06' E 153°57'323 9.0
2015-Aug-18 18:33S 32°23' E 152°45'12 9.2
2015-Aug-18 17:15S 32°33' E 152°37'6 9.3
2015-Aug-18 16:33S 32°37' E 152°32'1010.1
2015-Aug-18 15:33S 32°44' E 152°23'1010.3
2015-Aug-18 14:33S 32°52' E 152°15'1010.0
2015-Aug-18 13:33S 32°55' E 152°03'10 9.7
2015-Aug-18 12:33S 32°57' E 151°52'5 5.2
2015-Aug-18 11:33S 32°55' E 151°46'1 1.4
2015-Aug-18 10:31S 32°53' E 151°46'0 0.0
2015-Aug-18 09:31S 32°53' E 151°46'0 0.0
2015-Aug-18 08:28S 32°53' E 151°46'0 0.0
2015-Aug-18 07:28S 32°53' E 151°46'0 0.0
2015-Aug-18 06:28S 32°53' E 151°46'0 0.0
2015-Aug-18 05:31S 32°53' E 151°46'0 0.0
2015-Aug-18 04:31S 32°53' E 151°46'0 0.0
2015-Aug-18 04:10S 32°53' E 151°46'0 0.0
2015-Aug-18 04:07S 32°53' E 151°46'0 0.0
2015-Aug-18 03:31S 32°53' E 151°46'0 0.0
2015-Aug-18 02:31S 32°53' E 151°46'0 0.0
2015-Aug-18 01:31S 32°53' E 151°46'0 0.0
2015-Aug-18 00:28S 32°53' E 151°46'0 0.0
2015-Aug-17 23:31S 32°53' E 151°46'0 0.0
2015-Aug-17 22:31S 32°53' E 151°46'0 0.0
2015-Aug-17 21:31S 32°53' E 151°46'0 0.0
2015-Aug-17 20:31S 32°53' E 151°46'0 0.0
2015-Aug-17 19:28S 32°53' E 151°46'0 0.0
2015-Aug-17 18:28S 32°53' E 151°46'0 0.0
2015-Aug-17 17:31S 32°53' E 151°46'0 0.0
2015-Aug-17 16:22S 32°53' E 151°46'0 0.0
2015-Aug-17 15:28S 32°53' E 151°46'0 0.0
2015-Aug-17 14:31S 32°53' E 151°46'0 0.0
2015-Aug-17 13:31S 32°53' E 151°46'0 0.0
2015-Aug-17 12:22S 32°53' E 151°46'0 0.0
2015-Aug-17 11:31S 32°53' E 151°46'0 0.0
2015-Aug-17 10:31S 32°53' E 151°46'0 0.0
2015-Aug-17 09:31S 32°53' E 151°46'0 0.0
2015-Aug-17 08:31S 32°53' E 151°46'0 0.0
2015-Aug-17 07:31S 32°53' E 151°46'0 0.0
2015-Aug-17 06:31S 32°53' E 151°46'0 0.0
2015-Aug-17 05:31S 32°53' E 151°46'0 0.0
2015-Aug-17 04:31S 32°53' E 151°46'0 0.0
2015-Aug-17 03:28S 32°53' E 151°46'1 1.5
2015-Aug-17 02:33S 32°54' E 151°46'5 4.8
2015-Aug-17 01:33S 32°56' E 151°52'5 4.7
2015-Aug-17 00:33S 33°00' E 151°54'9 9.5
2015-Aug-16 23:33S 33°09' E 151°58'16 0.5
2015-Aug-15 17:31S 33°08' E 152°17'6 6.5
2015-Aug-15 16:33S 33°02' E 152°20'6 6.4
2015-Aug-15 15:33S 32°56' E 152°23'6 6.2
2015-Aug-15 14:33S 32°50' E 152°26'6 5.9
2015-Aug-15 13:33S 32°45' E 152°30'6 6.1
2015-Aug-15 12:33S 32°40' E 152°33'6 6.1
2015-Aug-15 11:33S 32°34' E 152°37'6 5.5
2015-Aug-15 10:31S 32°30' E 152°41'5 5.5
2015-Aug-15 09:33S 32°25' E 152°43'32110.6
2015-Aug-14 03:22S 27°11' E 153°56'2511.2
2015-Aug-14 01:10S 26°46' E 153°55'  
Track history (hours):
 
Tides and Currents Weather Stations Pressure Air Temp Water Temp Dewpoint Dewpoint Depression Visibility Wind Speed Wind Dir Waves Ship Positions

Goodwill

Last reported at 2015-Aug-20 07:07 UTC. Time now 2015-Sep-05 05:51 UTC.
Position S 27°01' E 153°57'.
Warning: this ship's position is 15 days out of date.

Length 269 m; draft 15.2 m.

Type: Cargo ship. MMSI: 440541000.

Date/timePositionNaut miles runAvg speedWind from/ knotsBaromVisibWave heightAir tempDewpointWater temp
2015-Aug-20 07:07S 27°01' E 153°57'5 9.3
2015-Aug-20 06:33S 27°06' E 153°57'323 9.0
2015-Aug-18 18:33S 32°23' E 152°45'12 9.2
2015-Aug-18 17:15S 32°33' E 152°37'6 9.3
2015-Aug-18 16:33S 32°37' E 152°32'1010.1
2015-Aug-18 15:33S 32°44' E 152°23'1010.3
2015-Aug-18 14:33S 32°52' E 152°15'1010.0
2015-Aug-18 13:33S 32°55' E 152°03'10 9.7
2015-Aug-18 12:33S 32°57' E 151°52'5 5.2
2015-Aug-18 11:33S 32°55' E 151°46'1 1.4
2015-Aug-18 10:31S 32°53' E 151°46'0 0.0
2015-Aug-18 09:31S 32°53' E 151°46'0 0.0
2015-Aug-18 08:28S 32°53' E 151°46'0 0.0
2015-Aug-18 07:28S 32°53' E 151°46'0 0.0
2015-Aug-18 06:28S 32°53' E 151°46'0 0.0
2015-Aug-18 05:31S 32°53' E 151°46'0 0.0
2015-Aug-18 04:31S 32°53' E 151°46'0 0.0
2015-Aug-18 04:10S 32°53' E 151°46'0 0.0
2015-Aug-18 04:07S 32°53' E 151°46'0 0.0
2015-Aug-18 03:31S 32°53' E 151°46'0 0.0
2015-Aug-18 02:31S 32°53' E 151°46'0 0.0
2015-Aug-18 01:31S 32°53' E 151°46'0 0.0
2015-Aug-18 00:28S 32°53' E 151°46'0 0.0
2015-Aug-17 23:31S 32°53' E 151°46'0 0.0
2015-Aug-17 22:31S 32°53' E 151°46'0 0.0
2015-Aug-17 21:31S 32°53' E 151°46'0 0.0
2015-Aug-17 20:31S 32°53' E 151°46'0 0.0
2015-Aug-17 19:28S 32°53' E 151°46'0 0.0
2015-Aug-17 18:28S 32°53' E 151°46'0 0.0
2015-Aug-17 17:31S 32°53' E 151°46'0 0.0
2015-Aug-17 16:22S 32°53' E 151°46'0 0.0
2015-Aug-17 15:28S 32°53' E 151°46'0 0.0
2015-Aug-17 14:31S 32°53' E 151°46'0 0.0
2015-Aug-17 13:31S 32°53' E 151°46'0 0.0
2015-Aug-17 12:22S 32°53' E 151°46'0 0.0
2015-Aug-17 11:31S 32°53' E 151°46'0 0.0
2015-Aug-17 10:31S 32°53' E 151°46'0 0.0
2015-Aug-17 09:31S 32°53' E 151°46'0 0.0
2015-Aug-17 08:31S 32°53' E 151°46'0 0.0
2015-Aug-17 07:31S 32°53' E 151°46'0 0.0
2015-Aug-17 06:31S 32°53' E 151°46'0 0.0
2015-Aug-17 05:31S 32°53' E 151°46'0 0.0
2015-Aug-17 04:31S 32°53' E 151°46'0 0.0
2015-Aug-17 03:28S 32°53' E 151°46'1 1.5
2015-Aug-17 02:33S 32°54' E 151°46'5 4.8
2015-Aug-17 01:33S 32°56' E 151°52'5 4.7
2015-Aug-17 00:33S 33°00' E 151°54'9 9.5
2015-Aug-16 23:33S 33°09' E 151°58'16 0.5
2015-Aug-15 17:31S 33°08' E 152°17'6 6.5
2015-Aug-15 16:33S 33°02' E 152°20'6 6.4
2015-Aug-15 15:33S 32°56' E 152°23'6 6.2
2015-Aug-15 14:33S 32°50' E 152°26'6 5.9
2015-Aug-15 13:33S 32°45' E 152°30'6 6.1
2015-Aug-15 12:33S 32°40' E 152°33'6 6.1
2015-Aug-15 11:33S 32°34' E 152°37'6 5.5
2015-Aug-15 10:31S 32°30' E 152°41'5 5.5
2015-Aug-15 09:33S 32°25' E 152°43'32110.6
2015-Aug-14 03:22S 27°11' E 153°56'2511.2
2015-Aug-14 01:10S 26°46' E 153°55'  

Dump ship's entire track history